Time;durP1;ratioP1;P1;durP2;ratioP2;P2;SDS_P1;SDS_P2;PMS_P1;PMS_P2;Temp;Humidity;BMP_temperature;BMP_pressure;BME280_temperature;BME280_humidity;BME280_pressure;Samples;Min_cycle;Max_cycle;Signal;HPM_P1;HPM_P2
2023/05/23 00:00:41;;;;;;;9.02;6.72;;;;;;;20.44;60.26;96250.53;5042216;28;20020;-33
2023/05/23 00:03:07;;;;;;;9.48;6.05;;;;;;;20.50;60.44;96241.53;5036135;28;20028;-33
2023/05/23 00:05:33;;;;;;;9.70;7.03;;;;;;;20.58;60.62;96246.06;5029593;28;20113;-34
2023/05/23 00:08:00;;;;;;;9.55;6.57;;;;;;;20.53;60.16;96246.03;5043493;28;20061;-34
2023/05/23 00:10:25;;;;;;;9.30;7.03;;;;;;;20.44;60.51;96236.75;5044123;28;20461;-33
2023/05/23 00:12:51;;;;;;;9.45;6.30;;;;;;;20.44;60.28;96236.75;5036151;28;20021;-33
2023/05/23 00:15:16;;;;;;;9.13;7.05;;;;;;;20.58;60.53;96237.81;5036381;28;20021;-33
2023/05/23 00:17:43;;;;;;;9.35;7.05;;;;;;;20.53;60.43;96237.78;5037012;28;20026;-33
2023/05/23 00:20:10;;;;;;;10.95;7.47;;;;;;;20.57;60.33;96238.31;5040886;28;20029;-33
2023/05/23 00:22:41;;;;;;;9.55;7.03;;;;;;;20.63;59.76;96241.84;5046101;28;20384;-33
2023/05/23 00:25:08;;;;;;;10.50;7.57;;;;;;;20.28;60.66;96248.44;5041389;28;20025;-33
2023/05/23 00:27:34;;;;;;;9.05;7.22;;;;;;;20.43;60.24;96243.53;5036320;28;20036;-33
2023/05/23 00:29:59;;;;;;;10.23;7.43;;;;;;;20.29;60.74;96238.19;5036142;28;20013;-33
2023/05/23 00:32:25;;;;;;;11.73;7.72;;;;;;;20.53;60.03;96235.78;5039873;28;20041;-33
2023/05/23 00:34:53;;;;;;;10.13;7.63;;;;;;;20.52;60.14;96228.03;5036363;28;20102;-33
2023/05/23 00:37:19;;;;;;;10.40;7.63;;;;;;;20.44;60.46;96244.28;5043137;28;20464;-33
2023/05/23 00:39:44;;;;;;;13.38;7.85;;;;;;;20.26;61.07;96239.94;5035947;28;20017;-33
2023/05/23 00:42:10;;;;;;;10.35;7.70;;;;;;;20.36;60.45;96235.00;5043280;28;20033;-33
2023/05/23 00:44:35;;;;;;;11.40;8.35;;;;;;;20.51;59.85;96237.53;5033068;28;20017;-33
2023/05/23 00:47:01;;;;;;;10.40;6.93;;;;;;;20.24;60.86;96245.19;5042977;28;20055;-33
2023/05/23 00:49:27;;;;;;;12.00;7.43;;;;;;;20.18;61.22;96230.63;5035674;28;20429;-34
2023/05/23 00:51:53;;;;;;;12.75;7.55;;;;;;;20.13;61.17;96228.63;5035517;28;20469;-33
2023/05/23 00:54:24;;;;;;;8.90;7.22;;;;;;;20.18;60.82;96218.84;5035702;28;20046;-33
2023/05/23 00:56:50;;;;;;;11.98;7.07;;;;;;;20.15;61.04;96226.13;5036001;28;20096;-34
2023/05/23 00:59:16;;;;;;;8.77;6.78;;;;;;;20.39;60.34;96229.25;5043619;28;20104;-32
2023/05/23 01:01:45;;;;;;;10.02;7.30;;;;;;;20.06;61.25;96227.06;5041006;28;20045;-33
2023/05/23 01:04:12;;;;;;;10.38;7.32;;;;;;;20.32;60.38;96229.69;5041286;28;20020;-33
2023/05/23 01:06:38;;;;;;;15.57;7.90;;;;;;;20.22;60.60;96214.63;5035426;28;20035;-33
2023/05/23 01:09:03;;;;;;;9.00;6.85;;;;;;;20.35;60.12;96222.44;5035072;28;20017;-33
2023/05/23 01:11:38;;;;;;;9.13;6.28;;;;;;;20.42;59.97;96221.97;5042460;28;20079;-33
2023/05/23 01:14:11;;;;;;;7.47;5.95;;;;;;;20.35;60.05;96228.72;5041112;28;20101;-33
2023/05/23 01:16:59;;;;;;;8.68;6.28;;;;;;;20.27;60.35;96224.94;5035593;28;20025;-33
2023/05/23 01:20:07;;;;;;;9.85;6.28;;;;;;;20.33;59.90;96228.44;5035596;28;20025;-33
2023/05/23 01:22:38;;;;;;;8.40;5.93;;;;;;;20.46;59.25;96228.00;5043301;28;20048;-33
2023/05/23 01:25:21;;;;;;;10.30;5.90;;;;;;;20.50;59.29;96227.78;5034615;28;20018;-33
2023/05/23 01:27:52;;;;;;;10.95;5.03;;;;;;;20.26;60.21;96225.41;5042546;28;20017;-33
2023/05/23 01:30:20;;;;;;;9.13;5.60;;;;;;;20.42;59.64;96222.72;5035215;28;20028;-33
2023/05/23 01:32:47;;;;;;;8.73;6.15;;;;;;;20.37;59.84;96226.22;5035177;28;20033;-33
2023/05/23 01:35:18;;;;;;;6.93;4.97;;;;;;;20.42;59.65;96225.47;5035006;28;20100;-34
2023/05/23 01:37:45;;;;;;;6.95;5.45;;;;;;;20.35;59.83;96225.97;5042523;28;20116;-33
2023/05/23 01:40:10;;;;;;;9.27;5.75;;;;;;;20.33;59.81;96217.41;5045635;28;20023;-32
2023/05/23 01:42:36;;;;;;;8.18;5.60;;;;;;;20.19;60.34;96215.63;5038554;28;20030;-32
2023/05/23 01:45:02;;;;;;;8.27;5.82;;;;;;;20.33;60.12;96225.69;5034934;28;20421;-33
2023/05/23 01:47:28;;;;;;;8.60;5.78;;;;;;;20.28;60.21;96217.38;5034704;28;20400;-33
2023/05/23 01:49:55;;;;;;;10.02;5.70;;;;;;;20.31;59.84;96219.16;5034570;28;20029;-33
2023/05/23 01:52:22;;;;;;;7.90;5.32;;;;;;;20.19;60.06;96218.38;5030622;28;20051;-33
2023/05/23 01:54:49;;;;;;;9.45;6.35;;;;;;;20.21;60.07;96217.88;5038558;28;20018;-33
2023/05/23 01:57:15;;;;;;;7.20;5.40;;;;;;;20.17;60.23;96223.63;5042023;28;20029;-33
2023/05/23 01:59:40;;;;;;;8.95;5.65;;;;;;;20.11;60.44;96216.59;5041657;28;20017;-34
2023/05/23 02:02:06;;;;;;;9.40;6.35;;;;;;;20.16;60.07;96211.09;5034566;28;20018;-34
2023/05/23 02:04:31;;;;;;;7.72;5.90;;;;;;;20.22;60.10;96208.38;5033725;28;20426;-33
2023/05/23 02:06:57;;;;;;;9.02;5.80;;;;;;;20.39;59.67;96215.47;5041428;28;20017;-32
2023/05/23 02:09:22;;;;;;;8.27;6.05;;;;;;;20.14;60.29;96208.09;5041859;28;20025;-33
2023/05/23 02:11:47;;;;;;;9.30;6.03;;;;;;;20.34;59.77;96209.91;5034189;28;20454;-33
2023/05/23 02:14:13;;;;;;;10.10;5.97;;;;;;;20.24;60.07;96217.66;5034013;28;20470;-33
2023/05/23 02:16:38;;;;;;;8.68;5.57;;;;;;;20.18;60.18;96214.09;5034728;28;20112;-34
2023/05/23 02:19:04;;;;;;;9.68;6.15;;;;;;;20.11;60.28;96209.09;5039501;28;20048;-33
2023/05/23 02:21:30;;;;;;;10.55;6.45;;;;;;;20.16;60.19;96211.09;5035742;28;20021;-32
2023/05/23 02:23:56;;;;;;;11.32;6.43;;;;;;;20.25;59.88;96207.38;5033948;28;20487;-33
2023/05/23 02:26:21;;;;;;;7.90;6.10;;;;;;;20.20;60.16;96208.88;5033822;28;20108;-33
2023/05/23 02:28:47;;;;;;;10.48;6.45;;;;;;;20.29;59.76;96210.63;5034312;28;20052;-33
2023/05/23 02:31:12;;;;;;;11.90;6.82;;;;;;;20.12;60.29;96210.59;5034088;28;20025;-33
2023/05/23 02:33:37;;;;;;;7.72;6.20;;;;;;;20.11;60.57;96209.09;5041401;28;20079;-33
2023/05/23 02:36:03;;;;;;;8.48;6.07;;;;;;;20.11;60.47;96209.09;5029395;28;20094;-33
2023/05/23 02:38:29;;;;;;;8.48;5.80;;;;;;;20.13;60.32;96211.34;5033565;28;20029;-33
2023/05/23 02:40:56;;;;;;;9.30;5.93;;;;;;;20.20;60.25;96216.38;5034000;28;20031;-33
2023/05/23 02:43:22;;;;;;;12.18;6.55;;;;;;;20.33;59.90;96211.91;5032617;28;20358;-33
2023/05/23 02:45:47;;;;;;;10.50;5.80;;;;;;;20.05;60.72;96216.56;5040807;28;20035;-33
2023/05/23 02:48:13;;;;;;;8.55;5.97;;;;;;;20.07;60.41;96214.06;5034018;28;20029;-32
2023/05/23 02:50:38;;;;;;;10.35;5.97;;;;;;;20.27;59.55;96216.66;5032831;28;20461;-33
2023/05/23 02:53:04;;;;;;;10.65;5.97;;;;;;;20.27;59.69;96213.16;5033453;28;20091;-33
2023/05/23 02:55:30;;;;;;;7.82;6.65;;;;;;;20.03;60.19;96219.78;5033824;28;20013;-33
2023/05/23 02:57:57;;;;;;;9.98;6.47;;;;;;;19.98;60.55;96212.28;5033525;28;20021;-33
2023/05/23 03:00:23;;;;;;;8.07;5.78;;;;;;;20.26;59.75;96206.13;5040936;28;20021;-33
2023/05/23 03:02:49;;;;;;;10.18;6.20;;;;;;;20.14;60.16;96208.09;5033628;28;20492;-33
2023/05/23 03:05:14;;;;;;;7.60;5.32;;;;;;;20.04;60.31;96220.56;5040693;28;20114;-33
2023/05/23 03:07:39;;;;;;;7.82;5.05;;;;;;;20.21;59.76;96217.88;5038812;28;20026;-33
2023/05/23 03:10:06;;;;;;;9.38;5.40;;;;;;;20.32;59.36;96218.66;5034389;28;20036;-32
2023/05/23 03:12:31;;;;;;;7.25;4.80;;;;;;;20.34;59.68;96215.41;5047008;28;20021;-33
2023/05/23 03:14:57;;;;;;;7.78;4.97;;;;;;;20.14;59.68;96221.88;5042948;28;20024;-33
2023/05/23 03:17:24;;;;;;;6.00;4.95;;;;;;;20.44;58.97;96211.97;5036309;28;20112;-32
2023/05/23 03:19:50;;;;;;;7.90;4.60;;;;;;;20.32;59.34;96215.91;5037653;28;20021;-33
2023/05/23 03:22:15;;;;;;;5.35;4.53;;;;;;;20.36;58.95;96218.47;5044380;28;20025;-32
2023/05/23 03:24:40;;;;;;;6.07;4.85;;;;;;;20.26;59.38;96217.91;5039453;28;20013;-33
2023/05/23 03:27:06;;;;;;;8.35;4.78;;;;;;;20.37;59.04;96219.97;5041681;28;20029;-32
2023/05/23 03:29:31;;;;;;;7.78;5.38;;;;;;;20.30;59.34;96223.91;5037221;28;20032;-33
2023/05/23 03:31:57;;;;;;;6.55;4.63;;;;;;;20.26;59.41;96228.94;5037803;28;20075;-33
2023/05/23 03:34:25;;;;;;;8.32;4.50;;;;;;;20.31;58.90;96225.41;5037200;28;20091;-33
2023/05/23 03:36:51;;;;;;;8.25;4.85;;;;;;;20.26;59.24;96225.41;5037201;28;20037;-33
2023/05/23 03:39:16;;;;;;;8.27;5.32;;;;;;;20.04;59.88;96231.56;5044284;28;20029;-33
2023/05/23 03:41:42;;;;;;;8.43;5.40;;;;;;;20.09;59.72;96228.09;5044259;28;20021;-33
2023/05/23 03:44:07;;;;;;;5.78;4.55;;;;;;;20.23;59.44;96220.91;5044035;28;20066;-32
2023/05/23 03:46:32;;;;;;;7.47;4.80;;;;;;;20.23;59.00;96227.16;5037180;28;20072;-33
2023/05/23 03:48:58;;;;;;;10.35;5.55;;;;;;;20.17;59.48;96229.13;5037320;28;20377;-34
2023/05/23 03:51:23;;;;;;;8.05;5.80;;;;;;;19.91;60.12;96225.75;5040547;28;20025;-33
2023/05/23 03:53:49;;;;;;;5.68;5.00;;;;;;;20.02;59.86;96223.81;5040699;28;20046;-33
2023/05/23 03:56:14;;;;;;;8.45;5.18;;;;;;;20.24;59.17;96217.66;5043729;28;20040;-33
2023/05/23 03:58:40;;;;;;;8.05;5.00;;;;;;;20.18;59.14;96225.13;5042191;28;20028;-32
2023/05/23 04:01:05;;;;;;;6.75;4.80;;;;;;;20.17;59.17;96223.63;5038019;28;20108;-33
2023/05/23 04:03:31;;;;;;;5.97;5.05;;;;;;;20.20;59.09;96230.88;5032262;28;20020;-33
2023/05/23 04:05:59;;;;;;;10.15;5.43;;;;;;;20.26;58.87;96225.41;5047711;28;20053;-33
2023/05/23 04:08:25;;;;;;;8.82;5.28;;;;;;;19.96;59.81;96231.28;5043801;28;20029;-33
2023/05/23 04:10:50;;;;;;;11.68;5.40;;;;;;;20.06;59.45;96229.06;5036853;28;20373;-33
2023/05/23 04:13:16;;;;;;;12.35;5.97;;;;;;;20.13;59.47;96231.38;5036334;28;20029;-33
2023/05/23 04:15:42;;;;;;;7.93;5.30;;;;;;;20.13;59.59;96234.13;5036474;28;20021;-33
2023/05/23 04:18:08;;;;;;;8.77;5.20;;;;;;;20.06;59.63;96231.81;5042465;28;20067;-33
2023/05/23 04:20:34;;;;;;;10.10;5.88;;;;;;;20.15;59.64;96239.91;5038048;28;20021;-33
2023/05/23 04:22:59;;;;;;;9.52;5.80;;;;;;;20.02;59.83;96239.59;5049314;28;20018;-33
2023/05/23 04:25:25;;;;;;;7.85;5.28;;;;;;;20.04;59.85;96237.06;5035923;28;20028;-33
2023/05/23 04:27:53;;;;;;;6.68;4.78;;;;;;;20.00;59.85;96242.81;5043349;28;20017;-33
2023/05/23 04:30:18;;;;;;;8.02;5.00;;;;;;;20.09;59.56;96239.09;5036152;28;20538;-32
2023/05/23 04:32:44;;;;;;;8.07;4.65;;;;;;;20.18;59.32;96246.41;5041885;28;20053;-33
2023/05/23 04:35:10;;;;;;;6.90;4.65;;;;;;;20.08;59.73;96237.59;5042985;28;20021;-33
2023/05/23 04:37:36;;;;;;;6.90;5.10;;;;;;;20.25;58.97;96232.16;5035725;28;20025;-33
2023/05/23 04:40:03;;;;;;;6.88;4.70;;;;;;;20.16;59.33;96232.38;5036569;28;20107;-33
2023/05/23 04:42:29;;;;;;;6.10;4.28;;;;;;;20.18;59.32;96230.63;5035276;28;20029;-33
2023/05/23 04:44:57;;;;;;;7.70;4.32;;;;;;;20.26;59.06;96234.44;5041885;28;20018;-33
2023/05/23 04:47:23;;;;;;;5.85;4.47;;;;;;;20.14;59.26;96245.91;5040204;28;20425;-34
2023/05/23 04:49:49;;;;;;;5.90;4.53;;;;;;;20.26;59.04;96245.44;5038052;28;20029;-33
2023/05/23 04:52:17;;;;;;;5.65;4.30;;;;;;;20.24;59.23;96247.94;5036214;28;20049;-33
2023/05/23 04:54:45;;;;;;;7.60;4.55;;;;;;;20.25;59.30;96246.69;5035872;28;20084;-33
2023/05/23 04:57:11;;;;;;;6.65;4.55;;;;;;;20.31;59.15;96247.44;5035790;28;20048;-33
2023/05/23 04:59:37;;;;;;;8.07;4.10;;;;;;;20.23;59.28;96249.19;5035788;28;20032;-32
2023/05/23 05:02:02;;;;;;;5.00;4.30;;;;;;;20.23;59.22;96251.94;5042441;28;20025;-33
2023/05/23 05:04:28;;;;;;;5.05;4.20;;;;;;;20.24;59.64;96245.19;5041443;28;20486;-33
2023/05/23 05:06:53;;;;;;;7.90;4.45;;;;;;;20.27;59.51;96265.47;5035598;28;20018;-33
2023/05/23 05:09:20;;;;;;;6.05;4.32;;;;;;;20.42;59.13;96258.53;5035809;28;20084;-33
2023/05/23 05:11:46;;;;;;;7.03;4.65;;;;;;;20.51;58.99;96262.34;5035307;28;20022;-33
2023/05/23 05:14:11;;;;;;;7.22;4.88;;;;;;;20.47;58.91;96259.06;5042242;28;20033;-34
2023/05/23 05:16:37;;;;;;;9.02;4.85;;;;;;;20.31;59.59;96260.47;5037835;28;20029;-36
2023/05/23 05:19:02;;;;;;;6.88;5.00;;;;;;;20.44;59.41;96252.53;5040469;28;20032;-34
2023/05/23 05:21:27;;;;;;;6.43;5.30;;;;;;;20.38;59.80;96249.78;5035876;28;20432;-33
2023/05/23 05:23:53;;;;;;;8.85;5.10;;;;;;;20.47;59.69;96246.03;5042288;28;20044;-33
2023/05/23 05:26:18;;;;;;;9.52;6.05;;;;;;;20.35;60.17;96245.25;5042513;28;20029;-33
2023/05/23 05:28:44;;;;;;;8.77;6.38;;;;;;;20.43;59.69;96251.78;5035385;28;20116;-33
2023/05/23 05:31:13;;;;;;;10.35;6.22;;;;;;;20.49;60.10;96249.06;5042077;28;20021;-33
2023/05/23 05:33:40;;;;;;;12.93;6.43;;;;;;;20.46;60.12;96244.53;5033957;28;20135;-32
2023/05/23 05:36:06;;;;;;;8.82;6.57;;;;;;;20.47;60.55;96250.78;5041635;28;20018;-33
2023/05/23 05:38:32;;;;;;;9.40;6.15;;;;;;;20.47;60.00;96256.31;5041477;28;20028;-34
2023/05/23 05:40:58;;;;;;;8.90;5.85;;;;;;;20.43;60.55;96249.03;5034099;28;20492;-33
2023/05/23 05:43:25;;;;;;;10.88;6.72;;;;;;;20.37;60.59;96247.50;5039584;28;20478;-33
2023/05/23 05:45:50;;;;;;;10.70;6.50;;;;;;;20.33;60.31;96255.97;5043860;28;20483;-33
2023/05/23 05:48:16;;;;;;;7.47;5.80;;;;;;;20.46;60.32;96249.28;5034703;28;20059;-33
2023/05/23 05:50:44;;;;;;;10.23;6.03;;;;;;;20.55;60.18;96241.53;5034489;28;20053;-33
2023/05/23 05:53:10;;;;;;;7.13;5.72;;;;;;;20.37;60.68;96242.00;5035934;28;20046;-33
2023/05/23 05:55:36;;;;;;;7.82;6.05;;;;;;;20.34;60.61;96240.97;5040119;28;20449;-33
2023/05/23 05:58:02;;;;;;;8.40;5.68;;;;;;;20.25;60.87;96241.19;5042201;28;20191;-33
2023/05/23 06:00:27;;;;;;;7.90;5.75;;;;;;;20.51;60.06;96245.81;5034672;28;20024;-33
2023/05/23 06:02:56;;;;;;;8.20;5.80;;;;;;;20.54;59.65;96247.56;5034374;28;20062;-33
2023/05/23 06:05:22;;;;;;;9.70;5.20;;;;;;;20.52;59.58;96248.06;5041818;28;20049;-34
2023/05/23 06:07:48;;;;;;;9.88;5.50;;;;;;;20.28;60.59;96251.19;5041438;28;20143;-33
2023/05/23 06:10:14;;;;;;;9.63;5.40;;;;;;;20.37;60.07;96258.53;5041606;28;20434;-33
2023/05/23 06:12:39;;;;;;;6.93;4.82;;;;;;;20.42;60.01;96255.03;5034342;28;20108;-33
2023/05/23 06:15:06;;;;;;;7.25;5.28;;;;;;;20.41;60.05;96254.28;5034401;28;20029;-33
2023/05/23 06:17:31;;;;;;;8.65;5.03;;;;;;;20.49;59.73;96259.31;5034719;28;20025;-33
2023/05/23 06:19:57;;;;;;;7.82;5.43;;;;;;;20.51;59.46;96262.34;5038586;28;20029;-33
2023/05/23 06:22:22;;;;;;;7.82;4.25;;;;;;;20.31;59.42;96266.72;5043970;28;20036;-33
2023/05/23 06:24:48;;;;;;;7.68;4.45;;;;;;;20.42;59.22;96266.78;5041290;28;20025;-33
2023/05/23 06:27:13;;;;;;;7.45;5.00;;;;;;;20.45;59.80;96265.06;5033862;28;20032;-33
2023/05/23 06:29:38;;;;;;;7.82;4.50;;;;;;;20.56;59.53;96264.34;5034268;28;20024;-33
2023/05/23 06:32:05;;;;;;;6.43;4.80;;;;;;;20.54;59.47;96258.56;5033981;28;20381;-33
2023/05/23 06:34:30;;;;;;;6.00;4.82;;;;;;;20.37;60.11;96251.03;5041302;28;20412;-33
2023/05/23 06:36:55;;;;;;;7.43;4.78;;;;;;;20.58;59.40;96253.59;5034241;28;20108;-33
2023/05/23 06:39:21;;;;;;;8.20;4.68;;;;;;;20.36;60.18;96262.53;5033971;28;20083;-33
2023/05/23 06:41:47;;;;;;;6.05;4.65;;;;;;;20.39;59.69;96267.06;5041408;28;20025;-33
2023/05/23 06:44:12;;;;;;;6.88;4.93;;;;;;;20.50;59.22;96261.59;5032811;28;20037;-33
2023/05/23 06:46:38;;;;;;;9.75;5.38;;;;;;;20.60;58.84;96265.63;5040766;28;20025;-32
2023/05/23 06:49:03;;;;;;;9.30;4.65;;;;;;;20.58;58.85;96267.34;5035181;28;20437;-33
2023/05/23 06:51:29;;;;;;;6.95;4.45;;;;;;;20.60;58.77;96268.38;5038752;28;20033;-33
2023/05/23 06:53:55;;;;;;;10.88;4.88;;;;;;;20.71;58.84;96273.16;5040436;28;20041;-33
2023/05/23 06:56:22;;;;;;;9.25;4.47;;;;;;;20.65;58.64;96266.88;5039440;28;20053;-33
2023/05/23 06:58:48;;;;;;;6.95;4.43;;;;;;;20.79;57.95;96269.41;5033914;28;20029;-33
2023/05/23 07:01:14;;;;;;;8.13;4.47;;;;;;;20.80;58.42;96276.44;5033603;28;20091;-33
2023/05/23 07:03:40;;;;;;;7.95;4.63;;;;;;;20.87;57.74;96277.97;5037308;28;20023;-33
2023/05/23 07:06:07;;;;;;;6.50;4.45;;;;;;;20.74;58.20;96274.94;5043499;28;20025;-33
2023/05/23 07:08:32;;;;;;;5.82;4.47;;;;;;;20.69;58.93;96270.13;5042894;28;20017;-33
2023/05/23 07:10:58;;;;;;;6.20;4.80;;;;;;;20.65;58.65;96273.13;5038079;28;20017;-33
2023/05/23 07:13:23;;;;;;;7.10;4.57;;;;;;;20.87;57.88;96277.22;5033420;28;20033;-33
2023/05/23 07:15:49;;;;;;;7.82;4.63;;;;;;;20.85;58.61;96274.94;5033728;28;20014;-33
2023/05/23 07:18:14;;;;;;;5.78;4.10;;;;;;;20.82;58.74;96286.22;5033605;28;20453;-34
2023/05/23 07:20:40;;;;;;;6.13;4.45;;;;;;;20.92;57.93;96279.22;5040702;28;20027;-34
2023/05/23 07:23:05;;;;;;;7.25;4.50;;;;;;;20.94;58.02;96279.47;5040379;28;20029;-33
2023/05/23 07:25:31;;;;;;;9.38;6.00;;;;;;;20.81;59.37;96279.94;5041007;28;20032;-34
2023/05/23 07:27:56;;;;;;;6.55;5.05;;;;;;;20.75;58.92;96274.44;5033274;28;20408;-33
2023/05/23 07:30:22;;;;;;;10.18;5.22;;;;;;;20.94;58.44;96280.22;5031815;28;20377;-33
2023/05/23 07:32:48;;;;;;;7.93;4.90;;;;;;;20.89;58.77;96283.75;5033399;28;20025;-33
2023/05/23 07:35:14;;;;;;;5.47;4.03;;;;;;;20.74;58.84;96280.44;5037598;28;20025;-33
2023/05/23 07:37:40;;;;;;;8.80;4.88;;;;;;;20.71;59.22;96284.94;5035603;28;20478;-34
2023/05/23 07:40:07;;;;;;;6.43;4.35;;;;;;;20.84;58.67;96278.19;5040229;28;20108;-33
2023/05/23 07:42:33;;;;;;;5.75;4.03;;;;;;;20.71;58.61;96287.69;5033626;28;20076;-34
2023/05/23 07:44:59;;;;;;;6.50;3.88;;;;;;;20.77;58.46;96279.44;5034218;28;20026;-33
2023/05/23 07:47:24;;;;;;;6.95;3.92;;;;;;;20.89;58.20;96280.97;5039302;28;20029;-33
2023/05/23 07:49:51;;;;;;;6.07;3.83;;;;;;;20.91;58.21;96281.22;5033186;28;20032;-33
2023/05/23 07:52:16;;;;;;;6.75;4.13;;;;;;;20.78;58.80;96286.44;5047137;28;20064;-33
2023/05/23 07:54:42;;;;;;;5.35;3.83;;;;;;;20.83;58.99;96284.97;5038655;28;20496;-33
2023/05/23 07:57:08;;;;;;;5.32;4.32;;;;;;;20.73;59.07;96287.19;5036945;28;20017;-33
2023/05/23 07:59:34;;;;;;;5.18;4.00;;;;;;;20.92;58.55;96288.22;5036555;28;20036;-33
2023/05/23 08:01:59;;;;;;;5.32;3.78;;;;;;;20.92;58.20;96284.72;5036712;28;20056;-33
2023/05/23 08:04:25;;;;;;;5.03;3.80;;;;;;;20.93;58.56;96294.50;5044887;28;20048;-33
2023/05/23 08:06:52;;;;;;;5.88;4.13;;;;;;;20.94;58.53;96282.97;5036648;28;20021;-33
2023/05/23 08:09:17;;;;;;;7.28;4.22;;;;;;;20.86;59.03;96283.97;5044002;28;20080;-35
2023/05/23 08:11:43;;;;;;;9.32;4.05;;;;;;;20.80;59.51;96283.94;5043706;28;20021;-33
2023/05/23 08:14:08;;;;;;;9.88;4.32;;;;;;;20.89;59.15;96282.97;5043736;28;20017;-33
2023/05/23 08:16:35;;;;;;;8.73;5.13;;;;;;;20.88;58.68;96287.75;5035595;28;20480;-33
2023/05/23 08:19:00;;;;;;;7.88;4.38;;;;;;;20.89;59.12;96291.25;5036492;28;20086;-33
2023/05/23 08:21:25;;;;;;;8.05;4.10;;;;;;;21.01;59.04;96287.25;5036630;28;20029;-33
2023/05/23 08:23:51;;;;;;;7.40;4.25;;;;;;;20.96;59.46;96290.75;5046707;28;20017;-33
2023/05/23 08:26:16;;;;;;;5.25;4.30;;;;;;;20.97;59.02;96282.00;5040532;28;20078;-33
2023/05/23 08:28:42;;;;;;;5.57;4.53;;;;;;;21.04;58.90;96287.00;5043575;28;20366;-33
2023/05/23 08:31:07;;;;;;;5.60;4.13;;;;;;;20.83;59.90;96276.69;5035121;28;20022;-33
2023/05/23 08:33:33;;;;;;;6.07;4.00;;;;;;;20.91;59.53;96283.97;5035772;28;20048;-33
2023/05/23 08:35:58;;;;;;;6.72;3.95;;;;;;;21.00;59.01;96286.50;5036578;28;20029;-33
2023/05/23 08:38:26;;;;;;;6.03;3.80;;;;;;;20.95;58.95;96287.25;5036019;28;20025;-32
2023/05/23 08:40:51;;;;;;;6.95;4.13;;;;;;;20.99;58.53;96279.50;5035945;28;20376;-33
2023/05/23 08:43:18;;;;;;;9.73;5.20;;;;;;;21.08;58.73;96297.78;5039985;28;20043;-33
2023/05/23 08:45:44;;;;;;;9.85;7.43;;;;;;;21.00;59.13;96300.28;5046053;28;20024;-33
2023/05/23 08:48:12;;;;;;;10.50;6.68;;;;;;;20.99;59.33;96287.00;5036378;28;20378;-33
2023/05/23 08:50:44;;;;;;;9.40;6.25;;;;;;;21.01;59.21;96298.28;5034556;28;20104;-36
2023/05/23 08:53:19;;;;;;;9.32;5.60;;;;;;;20.96;58.61;96296.28;5037380;28;20509;-33
2023/05/23 08:55:50;;;;;;;7.50;4.55;;;;;;;21.05;57.79;96298.78;5039831;28;20079;-33
2023/05/23 08:58:19;;;;;;;7.68;4.28;;;;;;;21.11;57.25;96294.78;5042540;28;20080;-33
2023/05/23 09:00:45;;;;;;;7.95;4.47;;;;;;;21.09;57.85;96300.06;5031863;28;20022;-33
2023/05/23 09:03:11;;;;;;;5.95;4.13;;;;;;;21.06;57.76;96290.00;5036453;28;20021;-33
2023/05/23 09:05:37;;;;;;;6.72;4.07;;;;;;;21.03;58.05;96293.00;5042381;28;20019;-34
2023/05/23 09:08:02;;;;;;;7.32;4.53;;;;;;;21.11;58.60;96299.56;5035522;28;20456;-33
2023/05/23 09:10:28;;;;;;;8.00;4.57;;;;;;;21.16;58.61;96296.03;5035443;28;20044;-33
2023/05/23 09:12:54;;;;;;;6.72;4.25;;;;;;;21.10;59.08;96293.28;5040772;28;20092;-33
2023/05/23 09:15:21;;;;;;;6.93;4.75;;;;;;;21.21;58.77;96300.09;5037410;28;20037;-34
2023/05/23 09:17:46;;;;;;;6.90;4.78;;;;;;;21.14;59.45;96302.06;5035349;28;20022;-34
2023/05/23 09:20:14;;;;;;;12.50;4.93;;;;;;;21.10;59.37;96295.28;5042304;28;20025;-33
2023/05/23 09:22:44;;;;;;;10.60;5.20;;;;;;;21.02;59.65;96292.25;5042691;28;20060;-33
2023/05/23 09:25:10;;;;;;;9.75;4.60;;;;;;;21.22;58.88;96296.09;5035363;28;20022;-33
2023/05/23 09:27:35;;;;;;;12.77;6.22;;;;;;;21.11;58.89;96291.28;5045377;28;20025;-33
2023/05/23 09:30:11;;;;;;;7.60;5.03;;;;;;;21.27;58.43;96292.56;5042256;28;20021;-34
2023/05/23 09:32:37;;;;;;;9.52;5.28;;;;;;;21.24;59.08;96297.09;5034708;28;20033;-33
2023/05/23 09:35:04;;;;;;;14.55;5.38;;;;;;;21.27;59.74;96292.56;5027655;28;20029;-33
2023/05/23 09:37:32;;;;;;;7.60;4.78;;;;;;;21.28;59.71;96291.31;5034961;28;20108;-33
2023/05/23 09:39:59;;;;;;;11.15;5.50;;;;;;;21.22;60.13;96296.09;5035177;28;20120;-33
2023/05/23 09:42:31;;;;;;;8.98;5.50;;;;;;;21.38;59.66;96284.31;5040030;28;20025;-33
2023/05/23 09:44:57;;;;;;;11.02;5.57;;;;;;;21.38;60.34;96289.84;5036794;28;20024;-33
2023/05/23 09:47:23;;;;;;;10.02;4.93;;;;;;;21.25;60.76;96292.34;5033402;28;20037;-34
2023/05/23 09:49:50;;;;;;;7.45;4.55;;;;;;;21.32;59.86;96292.59;5034557;28;20018;-33
2023/05/23 09:52:15;;;;;;;7.93;4.85;;;;;;;21.31;59.30;96288.31;5041126;28;20049;-33
2023/05/23 09:54:41;;;;;;;6.85;4.32;;;;;;;21.41;58.68;96291.56;5034692;28;20373;-33
2023/05/23 09:57:09;;;;;;;6.57;4.07;;;;;;;21.34;58.85;96283.81;5042024;28;20025;-33
2023/05/23 09:59:38;;;;;;;4.97;3.42;;;;;;;21.38;57.99;96289.84;5041672;28;20374;-33
2023/05/23 10:02:07;;;;;;;5.35;3.40;;;;;;;21.35;57.80;96288.81;5033167;28;20022;-33
2023/05/23 10:04:34;;;;;;;7.00;3.60;;;;;;;21.44;57.58;96290.56;5013013;28;20045;-33
2023/05/23 10:07:16;;;;;;;7.15;4.10;;;;;;;21.38;57.95;96282.31;5030714;28;20022;-33
2023/05/23 10:09:44;;;;;;;19.38;4.20;;;;;;;21.51;57.21;96285.28;5027797;28;20051;-33
2023/05/23 10:12:32;;;;;;;35.55;8.32;;;;;;;21.42;57.65;96282.81;5041421;28;20441;-33
2023/05/23 10:15:04;;;;;;;15.30;5.53;;;;;;;21.42;57.01;96282.03;5034393;28;20079;-33
2023/05/23 10:17:51;;;;;;;16.23;5.95;;;;;;;21.48;57.09;96288.31;5035218;28;20060;-33
2023/05/23 10:20:18;;;;;;;15.50;5.28;;;;;;;21.52;57.05;96291.56;5033724;28;20350;-33
2023/05/23 10:22:43;;;;;;;11.45;4.82;;;;;;;21.49;56.95;96285.06;5048844;28;20017;-33
2023/05/23 10:25:09;;;;;;;9.82;4.78;;;;;;;21.50;57.07;96289.34;5034022;28;20028;-33
2023/05/23 10:27:39;;;;;;;7.00;3.97;;;;;;;21.56;56.97;96292.06;5039837;28;20491;-34
2023/05/23 10:30:06;;;;;;;8.13;4.28;;;;;;;21.51;57.50;96282.53;5040601;28;20076;-33
2023/05/23 10:32:33;;;;;;;7.22;3.97;;;;;;;21.57;57.36;96292.84;5040715;28;20095;-33
2023/05/23 10:35:11;;;;;;;8.05;4.07;;;;;;;21.50;57.24;96294.84;5040456;28;20037;-33
2023/05/23 10:37:56;;;;;;;7.05;4.05;;;;;;;21.57;56.90;96279.78;5032292;28;20033;-33
2023/05/23 10:40:27;;;;;;;10.10;4.13;;;;;;;21.61;57.49;96285.81;5028436;28;20033;-33
2023/05/23 10:43:09;;;;;;;5.75;3.97;;;;;;;21.68;57.26;96282.53;5034123;28;20080;-33
2023/05/23 10:45:42;;;;;;;6.60;3.97;;;;;;;21.61;57.75;96285.06;5046731;28;20025;-33
2023/05/23 10:48:19;;;;;;;7.00;3.65;;;;;;;21.68;56.94;96290.81;5040932;28;20023;-33
2023/05/23 10:50:45;;;;;;;58.03;11.02;;;;;;;21.62;56.99;96287.31;5033668;28;20018;-34
2023/05/23 10:53:15;;;;;;;20.50;6.28;;;;;;;21.70;57.06;96288.31;5033555;28;20060;-33
2023/05/23 10:55:47;;;;;;;14.02;5.15;;;;;;;21.73;56.69;96284.56;5033700;28;20037;-33
2023/05/23 10:58:17;;;;;;;10.52;4.20;;;;;;;21.78;57.07;96289.28;5034815;28;20041;-33
2023/05/23 11:00:59;;;;;;;10.88;4.03;;;;;;;21.70;57.26;96285.56;5039004;28;20158;-33
2023/05/23 11:03:48;;;;;;;10.35;4.82;;;;;;;21.75;56.39;96282.03;5036586;28;20022;-33
2023/05/23 11:06:46;;;;;;;10.13;3.67;;;;;;;21.79;56.12;96287.28;5035034;28;20021;-33
2023/05/23 11:09:22;;;;;;;8.52;3.95;;;;;;;21.75;56.39;96282.03;5030982;28;20156;-33
2023/05/23 11:12:03;;;;;;;13.95;4.03;;;;;;;21.75;56.16;96281.28;5027766;28;20013;-33
2023/05/23 11:14:32;;;;;;;13.63;4.65;;;;;;;21.82;55.67;96281.53;5033890;28;20021;-33
2023/05/23 11:17:15;;;;;;;8.73;4.03;;;;;;;21.85;56.47;96269.47;5038242;28;20071;-33
2023/05/23 11:19:57;;;;;;;7.45;3.60;;;;;;;21.90;55.96;96281.00;5035881;28;20057;-33
2023/05/23 11:22:28;;;;;;;11.48;4.05;;;;;;;21.84;55.78;96273.50;5035971;28;20040;-33
2023/05/23 11:24:55;;;;;;;7.32;3.45;;;;;;;21.87;54.86;96271.72;5026375;28;20502;-33
2023/05/23 11:27:27;;;;;;;5.38;3.42;;;;;;;21.88;55.12;96264.97;5039670;28;20021;-33
2023/05/23 11:30:00;;;;;;;7.13;3.58;;;;;;;21.85;55.45;96272.22;5042812;28;20021;-32
2023/05/23 11:32:32;;;;;;;7.18;3.80;;;;;;;21.81;55.98;96268.97;5040685;28;20032;-33